createdAt,value
2023-02-19T00:01:53.510Z,16.93
2023-02-19T00:05:54.812Z,17.10
2023-02-19T00:09:56.188Z,13.93
2023-02-19T00:14:00.057Z,17.13
2023-02-19T00:18:01.357Z,27.20
2023-02-19T00:22:02.763Z,16.83
2023-02-19T00:26:17.745Z,19.30
2023-02-19T00:30:20.207Z,15.33
2023-02-19T00:34:21.529Z,16.87
2023-02-19T00:38:22.938Z,20.47
2023-02-19T00:42:25.733Z,19.13
2023-02-19T00:46:38.719Z,19.23
2023-02-19T00:50:40.057Z,12.63
2023-02-19T00:54:41.453Z,17.57
2023-02-19T00:58:43.075Z,18.03
2023-02-19T01:02:44.423Z,17.23
2023-02-19T01:06:45.781Z,15.47
2023-02-19T01:10:47.754Z,15.73
2023-02-19T01:14:49.085Z,16.03
2023-02-19T01:18:50.819Z,20.00
2023-02-19T01:22:52.468Z,16.77
2023-02-19T01:26:54.338Z,14.13
2023-02-19T01:30:55.657Z,12.23
2023-02-19T01:34:57.041Z,13.90
2023-02-19T01:39:00.653Z,14.73
2023-02-19T01:43:03.594Z,12.70
2023-02-19T01:47:04.953Z,14.73
2023-02-19T01:51:11.262Z,14.17
2023-02-19T01:55:14.139Z,14.93
2023-02-19T01:59:18.236Z,12.73
2023-02-19T02:03:20.685Z,13.67
2023-02-19T02:07:52.445Z,11.63
2023-02-19T02:11:53.860Z,11.13
2023-02-19T02:16:20.429Z,14.40
2023-02-19T02:20:46.537Z,12.53
2023-02-19T02:25:09.530Z,11.30
2023-02-19T02:29:29.266Z,12.03
2023-02-19T02:33:30.588Z,11.00
2023-02-19T02:37:35.606Z,14.80
2023-02-19T02:41:43.855Z,12.73
2023-02-19T02:45:45.268Z,13.93
2023-02-19T02:50:05.085Z,15.13
2023-02-19T02:54:44.531Z,11.27
2023-02-19T02:58:48.418Z,16.07
2023-02-19T03:02:49.966Z,15.80
2023-02-19T03:06:52.463Z,14.53
2023-02-19T03:11:28.329Z,12.33
2023-02-19T03:15:54.298Z,14.10
2023-02-19T03:19:58.556Z,14.07
2023-02-19T03:24:19.063Z,12.17
2023-02-19T03:28:43.797Z,14.03
2023-02-19T03:32:48.536Z,11.70
2023-02-19T03:37:00.433Z,11.93
2023-02-19T03:41:40.397Z,12.40
2023-02-19T03:45:49.129Z,14.43
2023-02-19T03:49:59.857Z,13.47
2023-02-19T03:54:24.077Z,13.93
2023-02-19T03:58:35.276Z,14.10
2023-02-19T04:02:43.637Z,16.20
2023-02-19T04:06:52.491Z,12.53
2023-02-19T04:10:55.178Z,13.80
2023-02-19T04:15:06.432Z,13.87
2023-02-19T04:19:19.712Z,14.63
2023-02-19T04:23:24.889Z,14.47
2023-02-19T04:27:26.562Z,13.87
2023-02-19T04:31:31.292Z,17.47
2023-02-19T04:35:32.743Z,15.70
2023-02-19T04:39:34.175Z,18.13
2023-02-19T04:43:35.462Z,19.43
2023-02-19T04:47:36.761Z,20.33
2023-02-19T04:51:39.332Z,23.20
2023-02-19T04:55:40.693Z,24.37
2023-02-19T04:59:42.091Z,24.43
2023-02-19T05:03:43.969Z,23.27
2023-02-19T05:07:45.301Z,19.63
2023-02-19T05:11:46.648Z,25.57
2023-02-19T05:16:15.953Z,23.93
2023-02-19T05:20:17.378Z,30.20
2023-02-19T05:24:19.040Z,28.97
2023-02-19T05:28:21.830Z,26.17
2023-02-19T05:32:23.176Z,27.93
2023-02-19T05:36:24.549Z,28.97
2023-02-19T05:40:25.879Z,24.77
2023-02-19T05:44:27.362Z,27.43
2023-02-19T05:48:28.662Z,30.13
2023-02-19T05:52:29.950Z,24.10
2023-02-19T05:56:41.974Z,24.60
2023-02-19T06:00:43.297Z,27.80
2023-02-19T06:04:44.600Z,33.40
2023-02-19T06:08:47.667Z,32.27
2023-02-19T06:12:53.329Z,33.67
2023-02-19T06:16:54.659Z,29.77
2023-02-19T06:21:07.860Z,30.40
2023-02-19T06:25:12.443Z,29.77
2023-02-19T06:29:13.759Z,31.57
2023-02-19T06:33:15.093Z,31.07
2023-02-19T06:37:16.662Z,30.67
2023-02-19T06:41:18.854Z,36.20
2023-02-19T06:45:20.451Z,32.27
2023-02-19T06:49:22.110Z,31.40
2023-02-19T06:53:23.582Z,27.37
2023-02-19T06:57:24.930Z,27.33
2023-02-19T07:01:27.145Z,28.70
2023-02-19T07:05:28.436Z,32.23
2023-02-19T07:09:29.813Z,28.70
2023-02-19T07:13:31.304Z,27.40
2023-02-19T07:17:34.382Z,28.13
2023-02-19T07:21:37.965Z,24.93
2023-02-19T07:25:39.605Z,24.07
2023-02-19T07:29:40.950Z,24.47
2023-02-19T07:33:46.276Z,27.90
2023-02-19T07:37:47.655Z,28.77
2023-02-19T07:41:48.911Z,26.80
2023-02-19T07:45:50.636Z,25.17
2023-02-19T07:49:51.980Z,28.07
2023-02-19T07:53:53.458Z,27.40
2023-02-19T07:57:54.896Z,24.37
2023-02-19T08:02:14.986Z,28.50
2023-02-19T08:06:16.356Z,27.60
2023-02-19T08:10:36.413Z,28.47
2023-02-19T08:14:37.734Z,23.77
2023-02-19T08:18:39.334Z,23.20
2023-02-19T08:22:40.782Z,27.63
2023-02-19T08:26:42.142Z,27.13
2023-02-19T08:30:45.699Z,26.23
2023-02-19T08:34:47.031Z,25.13
2023-02-19T08:38:48.394Z,25.60
2023-02-19T08:42:49.967Z,21.80
2023-02-19T08:46:51.236Z,22.40
2023-02-19T08:50:57.368Z,28.50
2023-02-19T08:54:59.388Z,24.07
2023-02-19T08:59:01.004Z,22.03
2023-02-19T09:03:02.389Z,20.37
2023-02-19T09:07:07.578Z,17.47
2023-02-19T09:11:09.180Z,18.03
2023-02-19T09:15:10.779Z,18.07
2023-02-19T09:19:12.081Z,18.80
2023-02-19T09:23:13.414Z,20.03
2023-02-19T09:27:16.969Z,16.13
2023-02-19T09:31:18.381Z,16.50
2023-02-19T09:35:19.718Z,13.23
2023-02-19T09:39:21.605Z,16.13
2023-02-19T09:43:26.365Z,16.30
2023-02-19T09:47:31.327Z,10.53
2023-02-19T09:51:36.527Z,10.67
2023-02-19T09:55:43.414Z,16.97
2023-02-19T09:59:57.540Z,11.60
2023-02-19T10:03:58.868Z,10.07
2023-02-19T10:08:04.536Z,14.10
2023-02-19T10:12:15.994Z,13.93
2023-02-19T10:16:26.788Z,10.37
2023-02-19T10:20:28.218Z,9.67
2023-02-19T10:24:30.722Z,12.00
2023-02-19T10:28:35.911Z,11.93
2023-02-19T10:32:37.647Z,11.93
2023-02-19T10:36:41.914Z,12.03
2023-02-19T10:40:46.896Z,11.30
2023-02-19T10:44:58.721Z,11.57
2023-02-19T10:49:30.187Z,9.90
2023-02-19T10:53:47.524Z,14.90
2023-02-19T10:57:50.353Z,13.23
2023-02-19T11:01:59.406Z,12.97
2023-02-19T11:06:06.741Z,13.83
2023-02-19T11:10:21.400Z,12.67
2023-02-19T11:14:24.729Z,11.07
2023-02-19T11:18:31.791Z,11.77
2023-02-19T11:22:39.937Z,12.50
2023-02-19T11:26:41.384Z,12.23
2023-02-19T11:30:45.058Z,10.70
2023-02-19T11:34:47.751Z,10.20
2023-02-19T11:38:50.240Z,11.00
2023-02-19T11:43:12.764Z,12.13
2023-02-19T11:47:44.824Z,10.50
2023-02-19T11:51:55.220Z,9.20
2023-02-19T11:56:18.263Z,10.70
2023-02-19T12:00:44.490Z,11.17
2023-02-19T12:05:01.000Z,9.00
2023-02-19T12:09:14.673Z,9.17
2023-02-19T12:13:46.476Z,8.43
2023-02-19T12:17:55.619Z,11.03
2023-02-19T12:22:16.051Z,6.70
2023-02-19T12:26:54.992Z,8.43
2023-02-19T12:31:14.258Z,5.70
2023-02-19T12:35:32.697Z,5.47
2023-02-19T12:39:45.672Z,6.67
2023-02-19T12:43:54.421Z,3.80
2023-02-19T12:48:08.059Z,4.53
2023-02-19T12:52:21.926Z,7.63
2023-02-19T12:56:30.828Z,4.50
2023-02-19T13:00:44.289Z,5.53
2023-02-19T13:04:58.041Z,5.43
2023-02-19T13:09:11.801Z,7.87
2023-02-19T13:13:21.782Z,6.57
2023-02-19T13:17:31.880Z,6.20
2023-02-19T13:21:56.434Z,9.03
2023-02-19T13:26:23.550Z,10.37
2023-02-19T13:30:37.483Z,7.43
2023-02-19T13:34:59.635Z,5.57
2023-02-19T13:39:05.641Z,5.53
2023-02-19T13:43:34.841Z,4.73
2023-02-19T13:47:59.144Z,3.97
2023-02-19T13:52:29.757Z,8.33
2023-02-19T13:56:34.182Z,5.07
2023-02-19T14:00:51.773Z,4.53
2023-02-19T14:05:02.336Z,8.40
2023-02-19T14:09:03.837Z,6.40
2023-02-19T14:13:08.399Z,5.33
2023-02-19T14:17:09.644Z,6.53
2023-02-19T14:21:17.436Z,5.97
2023-02-19T14:25:31.055Z,9.17
2023-02-19T14:29:35.296Z,6.87
2023-02-19T14:33:40.172Z,7.17
2023-02-19T14:37:44.958Z,7.23
2023-02-19T14:41:51.264Z,7.43
2023-02-19T14:46:07.999Z,8.83
2023-02-19T14:50:17.478Z,8.60
2023-02-19T14:54:35.014Z,8.83
2023-02-19T14:58:36.927Z,10.60
2023-02-19T15:02:42.999Z,10.57
2023-02-19T15:06:44.450Z,14.77
2023-02-19T15:10:46.833Z,17.23
2023-02-19T15:14:50.751Z,13.57
2023-02-19T15:18:54.273Z,12.17
2023-02-19T15:22:58.424Z,11.57
2023-02-19T15:26:59.873Z,12.77
2023-02-19T15:31:02.066Z,11.47
2023-02-19T15:35:04.644Z,14.17
2023-02-19T15:39:06.081Z,14.43
2023-02-19T15:43:26.323Z,15.23
2023-02-19T15:47:43.787Z,14.90
2023-02-19T15:52:00.048Z,12.70
2023-02-19T15:56:09.672Z,13.60
2023-02-19T16:00:23.719Z,13.60
2023-02-19T16:04:25.132Z,15.53
2023-02-19T16:08:35.392Z,12.27
2023-02-19T16:12:36.755Z,11.47
2023-02-19T16:16:41.059Z,11.03
2023-02-19T16:20:47.578Z,12.03
2023-02-19T16:24:52.710Z,12.73
2023-02-19T16:28:55.205Z,15.17
2023-02-19T16:33:21.557Z,11.63
2023-02-19T16:37:41.177Z,11.00
2023-02-19T16:41:46.522Z,12.13
2023-02-19T16:45:47.910Z,13.93
2023-02-19T16:49:49.283Z,13.53
2023-02-19T16:53:50.727Z,11.77
2023-02-19T16:57:52.423Z,12.17
2023-02-19T17:01:53.790Z,16.07
2023-02-19T17:05:56.313Z,11.97
2023-02-19T17:09:57.812Z,12.43
2023-02-19T17:13:59.257Z,15.10
2023-02-19T17:18:00.641Z,14.50
2023-02-19T17:22:02.051Z,12.57
2023-02-19T17:26:03.479Z,13.17
2023-02-19T17:30:15.487Z,13.33
2023-02-19T17:34:16.969Z,13.37
2023-02-19T17:38:18.368Z,14.57
2023-02-19T17:42:19.995Z,11.13
2023-02-19T17:46:23.574Z,13.83
2023-02-19T17:50:28.680Z,11.10
2023-02-19T17:54:30.167Z,8.13
2023-02-19T17:58:31.552Z,8.07
2023-02-19T18:02:32.930Z,5.67
2023-02-19T18:06:35.900Z,7.80
2023-02-19T18:10:37.394Z,5.27
2023-02-19T18:14:38.731Z,6.07
2023-02-19T18:18:40.329Z,6.20
2023-02-19T18:22:42.444Z,5.00
2023-02-19T18:26:44.580Z,3.70
2023-02-19T18:30:45.965Z,3.40
2023-02-19T18:34:52.547Z,3.50
2023-02-19T18:38:54.021Z,4.53
2023-02-19T18:42:55.657Z,3.37
2023-02-19T18:46:57.092Z,2.57
2023-02-19T18:50:58.502Z,3.10
2023-02-19T18:55:00.518Z,3.47
2023-02-19T18:59:04.275Z,3.57
2023-02-19T19:03:06.419Z,2.47
2023-02-19T19:07:09.266Z,3.50
2023-02-19T19:11:11.067Z,4.60
2023-02-19T19:15:12.732Z,4.90
2023-02-19T19:19:14.737Z,3.70
2023-02-19T19:23:16.130Z,3.00
2023-02-19T19:27:20.716Z,3.03
2023-02-19T19:31:22.982Z,3.90
2023-02-19T19:35:24.339Z,3.83
2023-02-19T19:39:25.714Z,6.00
2023-02-19T19:43:31.350Z,5.00
2023-02-19T19:47:32.772Z,4.70
2023-02-19T19:51:35.135Z,4.30
2023-02-19T19:55:36.733Z,3.63
2023-02-19T19:59:39.226Z,4.20
2023-02-19T20:03:40.616Z,4.07
2023-02-19T20:07:42.253Z,6.80
2023-02-19T20:11:48.878Z,5.13
2023-02-19T20:15:51.333Z,4.50
2023-02-19T20:19:53.454Z,4.80
2023-02-19T20:23:54.798Z,4.93
2023-02-19T20:27:56.250Z,4.57
2023-02-19T20:32:02.457Z,3.93
2023-02-19T20:36:04.237Z,6.67
2023-02-19T20:40:06.998Z,4.00
2023-02-19T20:44:08.296Z,3.63
2023-02-19T20:48:09.634Z,4.33
2023-02-19T20:52:10.928Z,4.23
2023-02-19T20:56:12.829Z,5.80
2023-02-19T21:00:15.596Z,5.93
2023-02-19T21:04:18.311Z,4.67
2023-02-19T21:08:19.614Z,5.50
2023-02-19T21:12:22.433Z,5.30
2023-02-19T21:16:23.736Z,6.20
2023-02-19T21:20:25.099Z,5.57
2023-02-19T21:24:26.432Z,6.40
2023-02-19T21:28:27.800Z,6.20
2023-02-19T21:32:29.181Z,6.00
2023-02-19T21:36:30.876Z,6.27
2023-02-19T21:40:32.874Z,6.97
2023-02-19T21:44:34.268Z,6.93
2023-02-19T21:48:35.568Z,6.70
2023-02-19T21:52:38.463Z,5.37
2023-02-19T21:56:39.845Z,5.70
2023-02-19T22:00:41.216Z,5.87
2023-02-19T22:04:42.479Z,7.03
2023-02-19T22:08:44.569Z,7.37
2023-02-19T22:12:47.095Z,6.30
2023-02-19T22:16:51.788Z,7.53
2023-02-19T22:20:53.206Z,8.27
2023-02-19T22:24:56.745Z,8.33
2023-02-19T22:28:59.442Z,8.67
2023-02-19T22:33:00.869Z,10.53
2023-02-19T22:37:02.189Z,10.40
2023-02-19T22:41:03.553Z,10.87
2023-02-19T22:45:06.081Z,12.07
2023-02-19T22:49:07.576Z,10.80
2023-02-19T22:53:08.891Z,13.00
2023-02-19T22:57:10.209Z,12.50
2023-02-19T23:01:14.057Z,12.73
2023-02-19T23:05:16.182Z,12.03
2023-02-19T23:09:19.318Z,12.60
2023-02-19T23:13:20.713Z,12.57
2023-02-19T23:17:21.988Z,14.97
2023-02-19T23:21:23.424Z,20.57
2023-02-19T23:25:24.787Z,14.93
2023-02-19T23:29:27.873Z,14.13
2023-02-19T23:33:29.284Z,15.60
2023-02-19T23:37:30.655Z,16.40
2023-02-19T23:41:32.022Z,17.00
2023-02-19T23:45:33.440Z,15.77
2023-02-19T23:49:34.828Z,16.03
2023-02-19T23:53:36.141Z,16.27
2023-02-19T23:57:37.492Z,18.03
